Terminal Aerodrome Forecast
Issued by NWS Blacksburg, VA

Home | Current Version | Previous Version | Text Only | Print | Product List | Glossary On
Versions: 1 2 3 4 5 6 7 8 9 10 11 12 13 14 15 16 17
000
FTUS41 KRNK 271140
TAFBLF
TAF
KBLF 271140Z 2712/2812 24006KT P6SM VCSH BKN030 OVC100
     FM271400 24004KT 6SM SHRA BKN015 OVC050
     FM271700 22004KT P6SM VCTS BKN035CB OVC100
     FM272300 VRB03KT P6SM SCT050 OVC120=

USA.gov is the U.S. government's official web portal to all federal, state and local government web resources and services.